sensor_id;sensor_type;location;lat;lon;timestamp;pressure;altitude;pressure_sealevel;temperature;humidity
80186;BME280;69904;52.122;5.422;2024-03-02T00:00:30;99826.63;;;8.23;72.20
80186;BME280;69904;52.122;5.422;2024-03-02T00:02:56;99816.69;;;8.23;72.52
80186;BME280;69904;52.122;5.422;2024-03-02T00:05:23;99825.59;;;8.24;72.36
80186;BME280;69904;52.122;5.422;2024-03-02T00:10:25;99821.03;;;8.24;72.73
80186;BME280;69904;52.122;5.422;2024-03-02T00:12:58;99826.63;;;8.23;72.85
80186;BME280;69904;52.122;5.422;2024-03-02T00:15:51;99822.06;;;8.23;72.92
80186;BME280;69904;52.122;5.422;2024-03-02T00:18:26;99839.47;;;8.27;72.41
80186;BME280;69904;52.122;5.422;2024-03-02T00:20:56;99846.09;;;8.31;72.31
80186;BME280;69904;52.122;5.422;2024-03-02T00:23:26;99846.94;;;8.32;72.37
80186;BME280;69904;52.122;5.422;2024-03-02T00:25:54;99857.47;;;8.33;72.32
80186;BME280;69904;52.122;5.422;2024-03-02T00:28:25;99861.81;;;8.34;72.17
80186;BME280;69904;52.122;5.422;2024-03-02T00:33:23;99869.47;;;8.37;72.01
80186;BME280;69904;52.122;5.422;2024-03-02T00:35:50;99910.41;;;8.39;72.01
80186;BME280;69904;52.122;5.422;2024-03-02T00:38:17;99918.91;;;8.36;72.36
80186;BME280;69904;52.122;5.422;2024-03-02T00:40:44;99917.03;;;8.37;72.21
80186;BME280;69904;52.122;5.422;2024-03-02T00:46:38;99937.50;;;8.31;72.70
80186;BME280;69904;52.122;5.422;2024-03-02T00:49:21;99939.94;;;8.26;73.57
80186;BME280;69904;52.122;5.422;2024-03-02T00:51:49;99927.31;;;8.20;74.03
80186;BME280;69904;52.122;5.422;2024-03-02T00:54:21;99933.72;;;8.13;74.56
80186;BME280;69904;52.122;5.422;2024-03-02T00:56:48;99929.38;;;8.05;74.70
80186;BME280;69904;52.122;5.422;2024-03-02T00:59:15;99936.38;;;7.99;75.28
80186;BME280;69904;52.122;5.422;2024-03-02T01:01:41;99945.06;;;7.95;76.21
80186;BME280;69904;52.122;5.422;2024-03-02T01:04:08;99936.78;;;7.90;76.50
80186;BME280;69904;52.122;5.422;2024-03-02T01:06:35;99939.44;;;7.83;76.67
80186;BME280;69904;52.122;5.422;2024-03-02T01:09:02;99937.56;;;7.77;77.17
80186;BME280;69904;52.122;5.422;2024-03-02T01:11:31;99944.13;;;7.75;77.58
80186;BME280;69904;52.122;5.422;2024-03-02T01:13:57;99941.03;;;7.71;77.56
80186;BME280;69904;52.122;5.422;2024-03-02T01:16:24;99955.91;;;7.67;78.39
80186;BME280;69904;52.122;5.422;2024-03-02T01:18:50;99945.31;;;7.59;78.81
80186;BME280;69904;52.122;5.422;2024-03-02T01:21:17;99936.66;;;7.57;79.22
80186;BME280;69904;52.122;5.422;2024-03-02T01:23:44;99936.63;;;7.50;79.68
80186;BME280;69904;52.122;5.422;2024-03-02T01:26:11;99951.66;;;7.45;80.04
80186;BME280;69904;52.122;5.422;2024-03-02T01:28:37;99949.78;;;7.39;80.16
80186;BME280;69904;52.122;5.422;2024-03-02T01:31:04;99963.38;;;7.37;80.38
80186;BME280;69904;52.122;5.422;2024-03-02T01:33:30;99961.09;;;7.34;80.72
80186;BME280;69904;52.122;5.422;2024-03-02T01:35:57;99960.69;;;7.31;81.15
80186;BME280;69904;52.122;5.422;2024-03-02T01:38:23;99951.16;;;7.28;81.11
80186;BME280;69904;52.122;5.422;2024-03-02T01:40:50;99960.69;;;7.31;81.53
80186;BME280;69904;52.122;5.422;2024-03-02T01:43:16;99953.00;;;7.28;81.80
80186;BME280;69904;52.122;5.422;2024-03-02T01:45:43;99957.97;;;7.24;82.12
80186;BME280;69904;52.122;5.422;2024-03-02T01:48:09;99957.97;;;7.24;82.18
80186;BME280;69904;52.122;5.422;2024-03-02T01:50:36;99955.88;;;7.19;82.37
80186;BME280;69904;52.122;5.422;2024-03-02T01:53:03;99959.75;;;7.17;82.22
80186;BME280;69904;52.122;5.422;2024-03-02T01:55:30;99958.09;;;7.16;82.80
80186;BME280;69904;52.122;5.422;2024-03-02T01:57:57;99955.63;;;7.14;82.63
80186;BME280;69904;52.122;5.422;2024-03-02T02:00:25;99954.38;;;7.10;83.08
80186;BME280;69904;52.122;5.422;2024-03-02T02:02:53;99958.28;;;7.08;83.27
80186;BME280;69904;52.122;5.422;2024-03-02T02:05:19;99955.59;;;7.08;83.50
80186;BME280;69904;52.122;5.422;2024-03-02T02:07:46;99950.41;;;7.06;83.54
80186;BME280;69904;52.122;5.422;2024-03-02T02:10:13;99952.06;;;7.07;83.36
80186;BME280;69904;52.122;5.422;2024-03-02T02:12:39;99961.34;;;7.05;83.64
80186;BME280;69904;52.122;5.422;2024-03-02T02:15:26;99956.38;;;7.02;83.89
80186;BME280;69904;52.122;5.422;2024-03-02T02:17:57;99965.44;;;7.01;83.92
80186;BME280;69904;52.122;5.422;2024-03-02T02:20:24;99965.66;;;6.99;84.38
80186;BME280;69904;52.122;5.422;2024-03-02T02:25:24;99958.38;;;6.93;84.99
80186;BME280;69904;52.122;5.422;2024-03-02T02:27:50;99953.63;;;6.89;85.53
80186;BME280;69904;52.122;5.422;2024-03-02T02:30:27;99953.97;;;6.86;85.61
80186;BME280;69904;52.122;5.422;2024-03-02T02:32:54;99952.13;;;6.86;86.00
80186;BME280;69904;52.122;5.422;2024-03-02T02:35:21;99949.22;;;6.81;86.48
80186;BME280;69904;52.122;5.422;2024-03-02T02:37:49;99944.25;;;6.78;86.26
80186;BME280;69904;52.122;5.422;2024-03-02T02:40:17;99969.59;;;6.75;86.96
80186;BME280;69904;52.122;5.422;2024-03-02T02:42:45;99975.53;;;6.71;87.40
80186;BME280;69904;52.122;5.422;2024-03-02T02:45:12;99963.16;;;6.70;87.56
80186;BME280;69904;52.122;5.422;2024-03-02T02:47:41;99957.59;;;6.71;87.63
80186;BME280;69904;52.122;5.422;2024-03-02T02:50:08;99972.84;;;6.71;87.89
80186;BME280;69904;52.122;5.422;2024-03-02T02:52:36;99969.94;;;6.66;87.46
80186;BME280;69904;52.122;5.422;2024-03-02T02:55:06;99953.19;;;6.64;87.37
80186;BME280;69904;52.122;5.422;2024-03-02T02:57:34;99972.97;;;6.63;87.30
80186;BME280;69904;52.122;5.422;2024-03-02T03:00:07;99981.25;;;6.61;87.16
80186;BME280;69904;52.122;5.422;2024-03-02T03:02:37;99972.53;;;6.59;87.21
80186;BME280;69904;52.122;5.422;2024-03-02T03:05:09;99976.25;;;6.58;87.02
80186;BME280;69904;52.122;5.422;2024-03-02T03:07:37;99969.44;;;6.56;87.09
80186;BME280;69904;52.122;5.422;2024-03-02T03:10:04;99961.00;;;6.59;87.22
80186;BME280;69904;52.122;5.422;2024-03-02T03:12:30;99964.91;;;6.56;87.26
80186;BME280;69904;52.122;5.422;2024-03-02T03:15:00;99971.09;;;6.57;87.54
80186;BME280;69904;52.122;5.422;2024-03-02T03:17:27;99968.59;;;6.55;87.74
80186;BME280;69904;52.122;5.422;2024-03-02T03:19:54;99964.00;;;6.49;87.25
80186;BME280;69904;52.122;5.422;2024-03-02T03:22:21;99958.81;;;6.48;87.60
80186;BME280;69904;52.122;5.422;2024-03-02T03:24:47;99965.84;;;6.49;87.81
80186;BME280;69904;52.122;5.422;2024-03-02T03:27:14;99971.63;;;6.46;87.22
80186;BME280;69904;52.122;5.422;2024-03-02T03:29:40;99978.59;;;6.47;86.75
80186;BME280;69904;52.122;5.422;2024-03-02T03:32:07;99980.66;;;6.45;86.28
80186;BME280;69904;52.122;5.422;2024-03-02T03:34:34;99981.88;;;6.42;86.11
80186;BME280;69904;52.122;5.422;2024-03-02T03:37:01;99980.19;;;6.41;85.97
80186;BME280;69904;52.122;5.422;2024-03-02T03:39:28;99977.75;;;6.40;85.70
80186;BME280;69904;52.122;5.422;2024-03-02T03:41:54;99984.94;;;6.39;85.78
80186;BME280;69904;52.122;5.422;2024-03-02T03:44:21;99976.91;;;6.39;85.77
80186;BME280;69904;52.122;5.422;2024-03-02T03:46:47;99980.66;;;6.45;85.91
80186;BME280;69904;52.122;5.422;2024-03-02T03:49:14;99985.19;;;6.44;86.06
80186;BME280;69904;52.122;5.422;2024-03-02T03:51:40;99994.91;;;6.45;85.97
80186;BME280;69904;52.122;5.422;2024-03-02T03:54:07;99991.81;;;6.48;86.35
80186;BME280;69904;52.122;5.422;2024-03-02T03:56:33;100003.56;;;6.47;85.92
80186;BME280;69904;52.122;5.422;2024-03-02T03:59:00;99982.94;;;6.48;85.77
80186;BME280;69904;52.122;5.422;2024-03-02T04:01:26;99988.97;;;6.50;85.87
80186;BME280;69904;52.122;5.422;2024-03-02T04:03:53;99984.22;;;6.52;85.92
80186;BME280;69904;52.122;5.422;2024-03-02T04:06:19;99992.06;;;6.53;85.84
80186;BME280;69904;52.122;5.422;2024-03-02T04:08:46;99993.94;;;6.53;85.64
80186;BME280;69904;52.122;5.422;2024-03-02T04:11:12;100000.94;;;6.54;85.39
80186;BME280;69904;52.122;5.422;2024-03-02T04:13:39;99990.22;;;6.54;85.59
80186;BME280;69904;52.122;5.422;2024-03-02T04:16:05;99998.28;;;6.54;85.51
80186;BME280;69904;52.122;5.422;2024-03-02T04:18:32;100004.28;;;6.56;85.55
80186;BME280;69904;52.122;5.422;2024-03-02T04:20:58;100016.03;;;6.55;85.59
80186;BME280;69904;52.122;5.422;2024-03-02T04:23:28;100008.81;;;6.55;85.14
80186;BME280;69904;52.122;5.422;2024-03-02T04:25:55;100011.09;;;6.58;85.19
80186;BME280;69904;52.122;5.422;2024-03-02T04:28:21;100004.91;;;6.58;85.46
80186;BME280;69904;52.122;5.422;2024-03-02T04:30:48;100004.91;;;6.58;85.17
80186;BME280;69904;52.122;5.422;2024-03-02T04:33:14;100006.56;;;6.59;85.22
80186;BME280;69904;52.122;5.422;2024-03-02T04:35:41;100012.94;;;6.58;85.41
80186;BME280;69904;52.122;5.422;2024-03-02T04:38:07;100010.06;;;6.59;85.31
80186;BME280;69904;52.122;5.422;2024-03-02T04:40:34;100019.97;;;6.59;85.05
80186;BME280;69904;52.122;5.422;2024-03-02T04:43:00;100007.41;;;6.59;84.57
80186;BME280;69904;52.122;5.422;2024-03-02T04:45:27;100017.28;;;6.59;85.04
80186;BME280;69904;52.122;5.422;2024-03-02T04:47:53;100023.47;;;6.59;85.05
80186;BME280;69904;52.122;5.422;2024-03-02T04:50:20;100022.47;;;6.60;84.80
80186;BME280;69904;52.122;5.422;2024-03-02T04:52:46;100024.50;;;6.58;84.79
80186;BME280;69904;52.122;5.422;2024-03-02T04:55:13;100032.53;;;6.58;84.66
80186;BME280;69904;52.122;5.422;2024-03-02T04:57:42;100033.78;;;6.56;84.76
80186;BME280;69904;52.122;5.422;2024-03-02T05:00:09;100040.78;;;6.57;84.98
80186;BME280;69904;52.122;5.422;2024-03-02T05:02:36;100049.47;;;6.59;84.67
80186;BME280;69904;52.122;5.422;2024-03-02T05:05:03;100043.09;;;6.60;84.49
80186;BME280;69904;52.122;5.422;2024-03-02T05:07:29;100037.53;;;6.61;84.46
80186;BME280;69904;52.122;5.422;2024-03-02T05:09:56;100034.84;;;6.61;84.26
80186;BME280;69904;52.122;5.422;2024-03-02T05:12:22;100056.31;;;6.61;83.82
80186;BME280;69904;52.122;5.422;2024-03-02T05:15:23;100037.72;;;6.60;83.89
80186;BME280;69904;52.122;5.422;2024-03-02T05:17:50;100046.78;;;6.59;83.77
80186;BME280;69904;52.122;5.422;2024-03-02T05:20:17;100046.78;;;6.59;83.92
80186;BME280;69904;52.122;5.422;2024-03-02T05:22:43;100043.25;;;6.58;83.16
80186;BME280;69904;52.122;5.422;2024-03-02T05:25:10;100046.16;;;6.57;83.03
80186;BME280;69904;52.122;5.422;2024-03-02T05:27:37;100049.03;;;6.55;83.18
80186;BME280;69904;52.122;5.422;2024-03-02T05:30:04;100047.16;;;6.56;82.69
80186;BME280;69904;52.122;5.422;2024-03-02T05:32:33;100051.69;;;6.55;82.47
80186;BME280;69904;52.122;5.422;2024-03-02T05:35:00;100052.53;;;6.56;82.63
80186;BME280;69904;52.122;5.422;2024-03-02T05:37:26;100063.44;;;6.54;82.22
80186;BME280;69904;52.122;5.422;2024-03-02T05:39:53;100057.44;;;6.52;81.65
80186;BME280;69904;52.122;5.422;2024-03-02T05:42:19;100050.78;;;6.48;81.60
80186;BME280;69904;52.122;5.422;2024-03-02T05:44:46;100043.34;;;6.44;81.36
80186;BME280;69904;52.122;5.422;2024-03-02T05:47:13;100044.09;;;6.38;81.05
80186;BME280;69904;52.122;5.422;2024-03-02T05:49:39;100056.88;;;6.36;80.82
80186;BME280;69904;52.122;5.422;2024-03-02T05:52:06;100048.00;;;6.35;80.46
80186;BME280;69904;52.122;5.422;2024-03-02T05:54:33;100045.09;;;6.37;79.96
80186;BME280;69904;52.122;5.422;2024-03-02T05:56:59;100054.63;;;6.39;79.59
80186;BME280;69904;52.122;5.422;2024-03-02T05:59:43;100061.84;;;6.39;79.41
80186;BME280;69904;52.122;5.422;2024-03-02T06:02:12;100066.19;;;6.40;79.52
80186;BME280;69904;52.122;5.422;2024-03-02T06:04:39;100061.66;;;6.40;79.52
80186;BME280;69904;52.122;5.422;2024-03-02T06:07:05;100059.16;;;6.39;79.65
80186;BME280;69904;52.122;5.422;2024-03-02T06:09:32;100067.19;;;6.39;79.56
80186;BME280;69904;52.122;5.422;2024-03-02T06:11:58;100065.53;;;6.38;79.85
80186;BME280;69904;52.122;5.422;2024-03-02T06:14:25;100071.72;;;6.38;80.07
80186;BME280;69904;52.122;5.422;2024-03-02T06:16:51;100083.28;;;6.39;80.18
80186;BME280;69904;52.122;5.422;2024-03-02T06:19:18;100076.25;;;6.38;80.66
80186;BME280;69904;52.122;5.422;2024-03-02T06:21:44;100083.66;;;6.36;81.09
80186;BME280;69904;52.122;5.422;2024-03-02T06:24:11;100082.81;;;6.35;80.97
80186;BME280;69904;52.122;5.422;2024-03-02T06:26:38;100091.69;;;6.36;81.25
80186;BME280;69904;52.122;5.422;2024-03-02T06:29:05;100092.91;;;6.33;81.57
80186;BME280;69904;52.122;5.422;2024-03-02T06:31:32;100104.63;;;6.32;81.34
80186;BME280;69904;52.122;5.422;2024-03-02T06:33:58;100098.44;;;6.31;81.48
80186;BME280;69904;52.122;5.422;2024-03-02T06:36:25;100096.41;;;6.33;81.87
80186;BME280;69904;52.122;5.422;2024-03-02T06:38:52;100098.25;;;6.33;81.70
80186;BME280;69904;52.122;5.422;2024-03-02T06:41:18;100107.13;;;6.33;81.46
80186;BME280;69904;52.122;5.422;2024-03-02T06:43:45;100113.50;;;6.32;81.87
80186;BME280;69904;52.122;5.422;2024-03-02T06:46:11;100112.50;;;6.33;81.99
80186;BME280;69904;52.122;5.422;2024-03-02T06:48:41;100113.13;;;6.36;81.57
80186;BME280;69904;52.122;5.422;2024-03-02T06:51:07;100107.78;;;6.36;81.59
80186;BME280;69904;52.122;5.422;2024-03-02T06:53:34;100105.72;;;6.38;81.36
80186;BME280;69904;52.122;5.422;2024-03-02T06:56:00;100108.41;;;6.38;81.41
80186;BME280;69904;52.122;5.422;2024-03-02T06:58:27;100110.06;;;6.39;81.19
80186;BME280;69904;52.122;5.422;2024-03-02T07:00:53;100103.22;;;6.36;81.45
80186;BME280;69904;52.122;5.422;2024-03-02T07:03:20;100100.53;;;6.36;81.57
80186;BME280;69904;52.122;5.422;2024-03-02T07:05:47;100110.47;;;6.36;81.24
80186;BME280;69904;52.122;5.422;2024-03-02T07:08:14;100104.06;;;6.37;81.16
80186;BME280;69904;52.122;5.422;2024-03-02T07:10:41;100110.25;;;6.37;81.21
80186;BME280;69904;52.122;5.422;2024-03-02T07:13:07;100106.56;;;6.38;81.02
80186;BME280;69904;52.122;5.422;2024-03-02T07:15:34;100106.38;;;6.40;81.19
80186;BME280;69904;52.122;5.422;2024-03-02T07:18:16;100108.84;;;6.41;80.95
80186;BME280;69904;52.122;5.422;2024-03-02T07:20:43;100110.34;;;6.44;81.20
80186;BME280;69904;52.122;5.422;2024-03-02T07:23:10;100100.88;;;6.48;80.94
80186;BME280;69904;52.122;5.422;2024-03-02T07:25:36;100111.59;;;6.48;81.04
80186;BME280;69904;52.122;5.422;2024-03-02T07:28:05;100120.31;;;6.50;80.49
80186;BME280;69904;52.122;5.422;2024-03-02T07:30:33;100124.44;;;6.52;80.58
80186;BME280;69904;52.122;5.422;2024-03-02T07:33:00;100109.00;;;6.54;80.51
80186;BME280;69904;52.122;5.422;2024-03-02T07:35:26;100126.38;;;6.58;80.51
80186;BME280;69904;52.122;5.422;2024-03-02T07:37:54;100129.72;;;6.60;80.42
80186;BME280;69904;52.122;5.422;2024-03-02T07:40:21;100128.69;;;6.61;80.51
80186;BME280;69904;52.122;5.422;2024-03-02T07:42:48;100123.78;;;6.65;80.41
80186;BME280;69904;52.122;5.422;2024-03-02T07:45:15;100130.63;;;6.67;80.33
80186;BME280;69904;52.122;5.422;2024-03-02T07:47:41;100125.88;;;6.69;80.20
80186;BME280;69904;52.122;5.422;2024-03-02T07:50:08;100139.47;;;6.68;80.27
80186;BME280;69904;52.122;5.422;2024-03-02T07:52:35;100138.44;;;6.69;80.13
80186;BME280;69904;52.122;5.422;2024-03-02T07:55:02;100143.81;;;6.69;80.48
80186;BME280;69904;52.122;5.422;2024-03-02T07:57:28;100133.47;;;6.66;80.31
80186;BME280;69904;52.122;5.422;2024-03-02T07:59:55;100135.16;;;6.67;80.29
80186;BME280;69904;52.122;5.422;2024-03-02T08:02:21;100157.44;;;6.67;80.10
80186;BME280;69904;52.122;5.422;2024-03-02T08:04:48;100152.44;;;6.64;80.42
80186;BME280;69904;52.122;5.422;2024-03-02T08:07:14;100155.94;;;6.65;79.89
80186;BME280;69904;52.122;5.422;2024-03-02T08:09:41;100148.09;;;6.63;80.01
80186;BME280;69904;52.122;5.422;2024-03-02T08:12:08;100156.97;;;6.64;80.00
80186;BME280;69904;52.122;5.422;2024-03-02T08:14:34;100152.59;;;6.63;80.45
80186;BME280;69904;52.122;5.422;2024-03-02T08:17:01;100155.28;;;6.63;79.90
80186;BME280;69904;52.122;5.422;2024-03-02T08:19:28;100159.00;;;6.62;79.91
80186;BME280;69904;52.122;5.422;2024-03-02T08:21:55;100161.50;;;6.63;80.25
80186;BME280;69904;52.122;5.422;2024-03-02T08:24:21;100152.44;;;6.64;80.28
80186;BME280;69904;52.122;5.422;2024-03-02T08:26:48;100164.66;;;6.67;80.06
80186;BME280;69904;52.122;5.422;2024-03-02T08:29:14;100154.19;;;6.72;80.01
80186;BME280;69904;52.122;5.422;2024-03-02T08:31:41;100152.38;;;6.79;80.00
80186;BME280;69904;52.122;5.422;2024-03-02T08:34:07;100150.44;;;6.88;79.99
80186;BME280;69904;52.122;5.422;2024-03-02T08:36:35;100159.34;;;6.95;79.47
80186;BME280;69904;52.122;5.422;2024-03-02T08:39:02;100153.22;;;7.01;79.21
80186;BME280;69904;52.122;5.422;2024-03-02T08:41:29;100154.31;;;7.06;78.83
80186;BME280;69904;52.122;5.422;2024-03-02T08:43:56;100149.19;;;7.11;78.96
80186;BME280;69904;52.122;5.422;2024-03-02T08:46:22;100157.72;;;7.15;78.72
80186;BME280;69904;52.122;5.422;2024-03-02T08:48:49;100153.22;;;7.22;78.62
80186;BME280;69904;52.122;5.422;2024-03-02T08:51:15;100153.69;;;7.26;77.96
80186;BME280;69904;52.122;5.422;2024-03-02T08:53:42;100158.91;;;7.34;77.96
80186;BME280;69904;52.122;5.422;2024-03-02T08:56:10;100159.34;;;7.37;78.28
80186;BME280;69904;52.122;5.422;2024-03-02T08:58:37;100154.50;;;7.47;78.29
80186;BME280;69904;52.122;5.422;2024-03-02T09:01:03;100149.81;;;7.56;77.43
80186;BME280;69904;52.122;5.422;2024-03-02T09:03:30;100161.75;;;7.53;77.18
80186;BME280;69904;52.122;5.422;2024-03-02T09:05:59;100165.06;;;7.55;77.32
80186;BME280;69904;52.122;5.422;2024-03-02T09:08:26;100158.69;;;7.56;76.46
80186;BME280;69904;52.122;5.422;2024-03-02T09:10:52;100157.91;;;7.63;76.88
80186;BME280;69904;52.122;5.422;2024-03-02T09:13:19;100151.13;;;7.67;76.36
80186;BME280;69904;52.122;5.422;2024-03-02T09:15:46;100162.53;;;7.75;76.04
80186;BME280;69904;52.122;5.422;2024-03-02T09:18:13;100161.97;;;7.80;75.22
80186;BME280;69904;52.122;5.422;2024-03-02T09:20:39;100166.75;;;7.84;74.73
80186;BME280;69904;52.122;5.422;2024-03-02T09:23:06;100163.84;;;7.86;74.48
80186;BME280;69904;52.122;5.422;2024-03-02T09:25:32;100162.69;;;7.95;74.02
80186;BME280;69904;52.122;5.422;2024-03-02T09:27:59;100160.41;;;7.98;73.47
80186;BME280;69904;52.122;5.422;2024-03-02T09:30:25;100169.59;;;8.11;73.22
80186;BME280;69904;52.122;5.422;2024-03-02T09:32:52;100163.03;;;8.20;72.46
80186;BME280;69904;52.122;5.422;2024-03-02T09:35:38;100171.75;;;8.28;72.38
80186;BME280;69904;52.122;5.422;2024-03-02T09:38:05;100159.22;;;8.35;71.54
80186;BME280;69904;52.122;5.422;2024-03-02T09:40:31;100160.03;;;8.36;70.51
80186;BME280;69904;52.122;5.422;2024-03-02T09:42:58;100161.75;;;8.43;70.53
80186;BME280;69904;52.122;5.422;2024-03-02T09:45:26;100178.72;;;8.51;69.42
80186;BME280;69904;52.122;5.422;2024-03-02T09:47:53;100176.06;;;8.57;69.05
80186;BME280;69904;52.122;5.422;2024-03-02T09:50:19;100170.06;;;8.62;66.93
80186;BME280;69904;52.122;5.422;2024-03-02T09:52:48;100174.00;;;8.66;68.35
80186;BME280;69904;52.122;5.422;2024-03-02T09:55:16;100169.72;;;8.78;67.95
80186;BME280;69904;52.122;5.422;2024-03-02T09:57:45;100176.38;;;8.88;67.08
80186;BME280;69904;52.122;5.422;2024-03-02T10:00:12;100175.75;;;8.93;66.84
80186;BME280;69904;52.122;5.422;2024-03-02T10:02:42;100179.09;;;9.02;66.99
80186;BME280;69904;52.122;5.422;2024-03-02T10:05:08;100182.22;;;9.12;66.40
80186;BME280;69904;52.122;5.422;2024-03-02T10:07:35;100173.75;;;9.21;66.47
80186;BME280;69904;52.122;5.422;2024-03-02T10:10:14;100184.94;;;9.25;65.83
80186;BME280;69904;52.122;5.422;2024-03-02T10:12:41;100165.06;;;9.39;66.03
80186;BME280;69904;52.122;5.422;2024-03-02T10:15:08;100177.50;;;9.53;65.31
80186;BME280;69904;52.122;5.422;2024-03-02T10:17:35;100174.63;;;9.61;65.05
80186;BME280;69904;52.122;5.422;2024-03-02T10:20:22;100168.38;;;9.74;64.42
80186;BME280;69904;52.122;5.422;2024-03-02T10:22:49;100166.50;;;9.88;64.57
80186;BME280;69904;52.122;5.422;2024-03-02T10:25:29;100168.34;;;10.00;63.67
80186;BME280;69904;52.122;5.422;2024-03-02T10:28:12;100167.31;;;10.01;63.86
80186;BME280;69904;52.122;5.422;2024-03-02T10:30:38;100168.75;;;10.24;63.67
80186;BME280;69904;52.122;5.422;2024-03-02T10:33:06;100173.31;;;10.17;62.45
80186;BME280;69904;52.122;5.422;2024-03-02T10:35:32;100173.69;;;10.27;63.02
80186;BME280;69904;52.122;5.422;2024-03-02T10:37:59;100162.25;;;10.38;62.43
80186;BME280;69904;52.122;5.422;2024-03-02T10:40:27;100168.03;;;10.48;60.99
80186;BME280;69904;52.122;5.422;2024-03-02T10:42:54;100153.97;;;10.33;60.61
80186;BME280;69904;52.122;5.422;2024-03-02T10:45:20;100144.84;;;10.34;61.15
80186;BME280;69904;52.122;5.422;2024-03-02T10:47:50;100146.03;;;10.51;61.24
80186;BME280;69904;52.122;5.422;2024-03-02T10:50:17;100142.88;;;10.61;60.65
80186;BME280;69904;52.122;5.422;2024-03-02T10:52:43;100145.03;;;10.83;60.81
80186;BME280;69904;52.122;5.422;2024-03-02T10:55:10;100138.97;;;10.94;60.82
80186;BME280;69904;52.122;5.422;2024-03-02T10:57:50;100129.97;;;11.01;59.94
80186;BME280;69904;52.122;5.422;2024-03-02T11:00:18;100126.97;;;11.15;59.74
80186;BME280;69904;52.122;5.422;2024-03-02T11:02:57;100129.25;;;11.43;60.09
80186;BME280;69904;52.122;5.422;2024-03-02T11:05:28;100126.56;;;11.43;58.59
80186;BME280;69904;52.122;5.422;2024-03-02T11:08:02;100136.13;;;11.39;57.91
80186;BME280;69904;52.122;5.422;2024-03-02T11:10:37;100148.34;;;11.48;57.57
80186;BME280;69904;52.122;5.422;2024-03-02T11:13:11;100136.03;;;11.52;57.18
80186;BME280;69904;52.122;5.422;2024-03-02T11:15:40;100135.31;;;11.63;58.43
80186;BME280;69904;52.122;5.422;2024-03-02T11:18:10;100126.00;;;12.02;59.06
80186;BME280;69904;52.122;5.422;2024-03-02T11:20:39;100137.72;;;12.14;57.52
80186;BME280;69904;52.122;5.422;2024-03-02T11:23:07;100138.56;;;12.33;57.01
80186;BME280;69904;52.122;5.422;2024-03-02T11:25:34;100137.66;;;12.21;54.90
80186;BME280;69904;52.122;5.422;2024-03-02T11:28:03;100144.88;;;12.27;55.22
80186;BME280;69904;52.122;5.422;2024-03-02T11:33:02;100138.31;;;12.35;53.55
80186;BME280;69904;52.122;5.422;2024-03-02T11:35:37;100133.09;;;12.21;53.30
80186;BME280;69904;52.122;5.422;2024-03-02T11:38:06;100120.91;;;12.49;54.76
80186;BME280;69904;52.122;5.422;2024-03-02T11:40:33;100128.53;;;12.70;53.32
80186;BME280;69904;52.122;5.422;2024-03-02T11:43:00;100121.09;;;12.65;52.05
80186;BME280;69904;52.122;5.422;2024-03-02T11:45:27;100115.28;;;12.62;52.28
80186;BME280;69904;52.122;5.422;2024-03-02T11:47:54;100130.84;;;12.66;51.80
80186;BME280;69904;52.122;5.422;2024-03-02T11:50:34;100117.22;;;12.73;51.97
80186;BME280;69904;52.122;5.422;2024-03-02T11:53:02;100118.41;;;13.07;51.90
80186;BME280;69904;52.122;5.422;2024-03-02T11:55:36;100110.81;;;13.16;49.68
80186;BME280;69904;52.122;5.422;2024-03-02T11:58:06;100109.97;;;13.15;50.72
80186;BME280;69904;52.122;5.422;2024-03-02T12:00:33;100103.50;;;13.16;49.48
80186;BME280;69904;52.122;5.422;2024-03-02T12:03:08;100106.13;;;13.23;48.28
80186;BME280;69904;52.122;5.422;2024-03-02T12:05:35;100104.81;;;13.25;49.45
80186;BME280;69904;52.122;5.422;2024-03-02T12:08:04;100098.59;;;13.48;48.90
80186;BME280;69904;52.122;5.422;2024-03-02T12:10:31;100109.22;;;13.61;48.24
80186;BME280;69904;52.122;5.422;2024-03-02T12:12:58;100094.38;;;13.75;48.45
80186;BME280;69904;52.122;5.422;2024-03-02T12:15:26;100091.88;;;13.85;47.55
80186;BME280;69904;52.122;5.422;2024-03-02T12:17:57;100081.34;;;14.01;47.68
80186;BME280;69904;52.122;5.422;2024-03-02T12:20:25;100081.38;;;13.89;47.51
80186;BME280;69904;52.122;5.422;2024-03-02T12:22:53;100081.63;;;13.76;48.22
80186;BME280;69904;52.122;5.422;2024-03-02T12:25:20;100078.81;;;13.82;49.11
80186;BME280;69904;52.122;5.422;2024-03-02T12:27:52;100087.16;;;13.69;48.40
80186;BME280;69904;52.122;5.422;2024-03-02T12:30:19;100074.16;;;14.06;49.02
80186;BME280;69904;52.122;5.422;2024-03-02T12:32:47;100074.03;;;14.13;48.09
80186;BME280;69904;52.122;5.422;2024-03-02T12:35:14;100069.63;;;14.23;49.26
80186;BME280;69904;52.122;5.422;2024-03-02T12:37:50;100070.16;;;14.49;49.20
80186;BME280;69904;52.122;5.422;2024-03-02T12:40:18;100075.16;;;14.28;49.99
80186;BME280;69904;52.122;5.422;2024-03-02T12:42:46;100076.22;;;14.39;50.55
80186;BME280;69904;52.122;5.422;2024-03-02T12:45:13;100061.59;;;14.68;49.96
80186;BME280;69904;52.122;5.422;2024-03-02T12:47:41;100050.91;;;14.79;49.50
80186;BME280;69904;52.122;5.422;2024-03-02T12:50:09;100059.09;;;15.12;49.53
80186;BME280;69904;52.122;5.422;2024-03-02T12:52:36;100048.41;;;15.05;49.07
80186;BME280;69904;52.122;5.422;2024-03-02T12:55:04;100044.69;;;15.28;50.02
80186;BME280;69904;52.122;5.422;2024-03-02T12:57:32;100044.44;;;15.30;48.50
80186;BME280;69904;52.122;5.422;2024-03-02T13:00:00;100036.13;;;15.03;48.19
80186;BME280;69904;52.122;5.422;2024-03-02T13:02:28;100043.28;;;15.09;47.95
80186;BME280;69904;52.122;5.422;2024-03-02T13:04:55;100046.50;;;15.06;48.72
80186;BME280;69904;52.122;5.422;2024-03-02T13:07:24;100043.28;;;15.42;48.77
80186;BME280;69904;52.122;5.422;2024-03-02T13:09:51;100038.84;;;15.70;48.52
80186;BME280;69904;52.122;5.422;2024-03-02T13:12:19;100046.31;;;15.79;47.03
80186;BME280;69904;52.122;5.422;2024-03-02T13:14:48;100045.56;;;15.50;46.90
80186;BME280;69904;52.122;5.422;2024-03-02T13:17:15;100042.75;;;15.79;47.40